Hillister, Texas
Current Conditions -  °F | °C
As of 7:35 PM on Tuesday 25 Nov 2014 (Local Time) from KJAS Reporting Station
Clear Clear  
Wind Chill: 41°   Ceiling: Unl
Heat Index: 41°   Visibility: 10mi
Dew Point: 40°   Wind: 0mph
Humidity: 95%   Direction: NA
Pressure: 30.26"   Gusts: NA
Location:  30.67°N, 94.38°W
Report Text: KJAS 260135Z AUTO 00000KT 10SM CLR 05/04 A3026 RMK AO2 T00520044
Loading
Personal Weather Stations






























Interactive Weather Map New forecast layout! Learn more

10-Day Weather Forecast

Advertisements
Track Severe Weather on mobile